Terminal Aerodrome Forecast
Issued by NWS Blacksburg, VA

Current Version | Previous Version | Graphics & Text | Print | Product List | Glossary On
Versions: 1 2 3 4 5 6 7 8 9 10 11 12 13 14 15 16 17 18 19 20 21 22 23 24 25 26 27 28 29 30 31 32 33 34 35 36 37
000
FTUS41 KRNK 210540
TAFBLF
TAF
KBLF 210540Z 2106/2206 VRB03KT P6SM OVC080
     FM210900 09003KT 5SM -RA OVC020
     FM211500 25004KT P6SM SCT007 OVC015
     FM212000 30010KT P6SM OVC018
     FM220400 31013KT P6SM OVC030=

USA.gov is the U.S. government's official web portal to all federal, state and local government web resources and services.